createdAt,value
2023-05-14T00:00:41.550Z,70.11
2023-05-14T00:01:41.576Z,70.09
2023-05-14T00:02:41.687Z,70.06
2023-05-14T00:03:41.686Z,70.08
2023-05-14T00:04:41.723Z,70.20
2023-05-14T00:05:41.646Z,70.15
2023-05-14T00:06:41.640Z,70.00
2023-05-14T00:07:41.657Z,70.06
2023-05-14T00:08:41.728Z,70.10
2023-05-14T00:09:41.706Z,70.27
2023-05-14T00:10:41.727Z,70.25
2023-05-14T00:11:41.741Z,70.31
2023-05-14T00:12:41.754Z,70.53
2023-05-14T00:13:41.786Z,70.66
2023-05-14T00:14:41.776Z,70.74
2023-05-14T00:15:41.813Z,70.80
2023-05-14T00:16:41.771Z,70.87
2023-05-14T00:17:41.830Z,70.96
2023-05-14T00:18:41.833Z,70.92
2023-05-14T00:19:41.785Z,70.90
2023-05-14T00:20:41.801Z,70.87
2023-05-14T00:21:41.855Z,70.65
2023-05-14T00:22:41.914Z,70.58
2023-05-14T00:23:41.957Z,70.46
2023-05-14T00:24:42.021Z,70.43
2023-05-14T00:25:42.026Z,70.29
2023-05-14T00:26:42.074Z,70.23
2023-05-14T00:27:42.107Z,70.16
2023-05-14T00:28:42.160Z,70.09
2023-05-14T00:29:42.224Z,70.03
2023-05-14T00:30:42.211Z,70.17
2023-05-14T00:31:42.278Z,69.71
2023-05-14T00:32:42.362Z,69.67
2023-05-14T00:33:42.344Z,69.32
2023-05-14T00:34:42.424Z,69.24
2023-05-14T00:35:42.467Z,69.41
2023-05-14T00:36:42.519Z,69.37
2023-05-14T00:37:42.576Z,70.59
2023-05-14T00:38:42.681Z,69.92
2023-05-14T00:39:42.703Z,70.04
2023-05-14T00:40:42.685Z,70.15
2023-05-14T00:41:42.722Z,70.07
2023-05-14T00:42:42.764Z,69.86
2023-05-14T00:43:42.797Z,69.93
2023-05-14T00:44:42.858Z,69.82
2023-05-14T00:45:42.884Z,69.54
2023-05-14T00:46:42.968Z,69.38
2023-05-14T00:47:42.975Z,69.23
2023-05-14T00:48:42.935Z,69.12
2023-05-14T00:49:43.004Z,68.76
2023-05-14T00:50:43.029Z,68.55
2023-05-14T00:51:43.079Z,68.75
2023-05-14T00:52:43.175Z,68.79
2023-05-14T00:53:43.239Z,68.75
2023-05-14T00:54:43.310Z,69.88
2023-05-14T00:55:43.407Z,69.43
2023-05-14T00:56:43.448Z,69.92
2023-05-14T00:57:43.516Z,69.57
2023-05-14T00:58:43.599Z,69.34
2023-05-14T00:59:43.683Z,69.64
2023-05-14T01:00:43.716Z,69.69
2023-05-14T01:01:43.808Z,69.76
2023-05-14T01:02:43.980Z,69.56
2023-05-14T01:03:44.112Z,69.69
2023-05-14T01:04:44.034Z,70.81
2023-05-14T01:05:44.105Z,70.42
2023-05-14T01:06:44.169Z,70.66
2023-05-14T01:07:44.241Z,70.60
2023-05-14T01:08:44.314Z,70.27
2023-05-14T01:09:44.362Z,70.51
2023-05-14T01:10:44.396Z,70.71
2023-05-14T01:11:44.422Z,70.66
2023-05-14T01:12:44.457Z,71.02
2023-05-14T01:13:44.492Z,70.65
2023-05-14T01:14:44.546Z,70.59
2023-05-14T01:15:44.588Z,70.69
2023-05-14T01:16:44.678Z,70.71
2023-05-14T01:17:44.716Z,70.84
2023-05-14T01:18:44.759Z,70.80
2023-05-14T01:19:44.785Z,70.66
2023-05-14T01:20:44.817Z,70.72
2023-05-14T01:21:44.839Z,70.75
2023-05-14T01:22:44.867Z,70.79
2023-05-14T01:23:44.893Z,71.09
2023-05-14T01:24:44.996Z,71.11
2023-05-14T01:25:44.973Z,71.73
2023-05-14T01:26:44.983Z,71.55
2023-05-14T01:27:45.012Z,71.49
2023-05-14T01:28:45.042Z,71.52
2023-05-14T01:29:45.057Z,71.99
2023-05-14T01:30:45.079Z,72.11
2023-05-14T01:31:45.105Z,72.06
2023-05-14T01:32:45.199Z,71.73
2023-05-14T01:33:45.264Z,71.95
2023-05-14T01:34:45.304Z,71.95
2023-05-14T01:35:45.379Z,73.38
2023-05-14T01:36:45.429Z,73.77
2023-05-14T01:37:45.499Z,73.98
2023-05-14T01:38:45.589Z,73.63
2023-05-14T01:39:45.609Z,73.19
2023-05-14T01:40:45.657Z,73.40
2023-05-14T01:41:45.684Z,73.14
2023-05-14T01:42:45.745Z,72.92
2023-05-14T01:43:45.769Z,72.78
2023-05-14T01:44:45.806Z,72.62
2023-05-14T01:45:45.989Z,72.26
2023-05-14T01:46:45.929Z,72.02
2023-05-14T01:47:46.009Z,71.76
2023-05-14T01:48:46.044Z,71.47
2023-05-14T01:49:46.125Z,71.59
2023-05-14T01:50:46.160Z,71.18
2023-05-14T01:51:46.202Z,70.73
2023-05-14T01:52:46.266Z,70.58
2023-05-14T01:53:46.304Z,70.50
2023-05-14T01:54:46.352Z,70.28
2023-05-14T01:55:46.409Z,70.12
2023-05-14T01:56:46.460Z,70.02
2023-05-14T01:57:46.497Z,69.97
2023-05-14T01:58:46.550Z,69.88
2023-05-14T01:59:46.568Z,69.87
2023-05-14T02:00:46.629Z,69.86
2023-05-14T02:01:46.680Z,69.83
2023-05-14T02:02:46.686Z,69.78
2023-05-14T02:03:46.724Z,69.67
2023-05-14T02:04:46.728Z,69.37
2023-05-14T02:05:46.804Z,69.18
2023-05-14T02:06:46.839Z,68.85
2023-05-14T02:07:46.847Z,68.61
2023-05-14T02:08:46.885Z,68.78
2023-05-14T02:09:46.917Z,68.83
2023-05-14T02:10:46.958Z,68.76
2023-05-14T02:11:46.999Z,68.71
2023-05-14T02:12:47.031Z,68.59
2023-05-14T02:13:47.064Z,68.58
2023-05-14T02:14:47.094Z,68.67
2023-05-14T02:15:47.163Z,68.62
2023-05-14T02:16:47.165Z,68.53
2023-05-14T02:17:47.218Z,68.52
2023-05-14T02:18:47.295Z,68.55
2023-05-14T02:19:47.255Z,68.46
2023-05-14T02:20:47.263Z,68.28
2023-05-14T02:21:47.313Z,68.03
2023-05-14T02:22:47.335Z,67.93
2023-05-14T02:23:47.338Z,67.84
2023-05-14T02:24:47.371Z,67.89
2023-05-14T02:25:47.416Z,67.50
2023-05-14T02:26:47.432Z,67.47
2023-05-14T02:27:47.491Z,67.58
2023-05-14T02:28:47.519Z,67.53
2023-05-14T02:29:47.570Z,67.45
2023-05-14T02:30:47.589Z,67.40
2023-05-14T02:31:47.675Z,67.37
2023-05-14T02:32:47.770Z,67.47
2023-05-14T02:33:47.682Z,67.68
2023-05-14T02:34:47.700Z,67.47
2023-05-14T02:35:47.730Z,67.45
2023-05-14T02:36:47.767Z,67.44
2023-05-14T02:37:47.869Z,67.29
2023-05-14T02:38:47.820Z,67.10
2023-05-14T02:39:47.833Z,67.10
2023-05-14T02:40:47.869Z,67.03
2023-05-14T02:41:47.910Z,67.03
2023-05-14T02:42:47.944Z,66.91
2023-05-14T02:43:47.988Z,66.85
2023-05-14T02:44:48.024Z,66.98
2023-05-14T02:45:48.052Z,67.08
2023-05-14T02:46:48.125Z,67.23
2023-05-14T02:47:48.157Z,67.10
2023-05-14T02:48:48.129Z,67.06
2023-05-14T02:49:48.159Z,67.11
2023-05-14T02:50:48.191Z,67.21
2023-05-14T02:51:48.215Z,67.32
2023-05-14T02:52:48.249Z,67.35
2023-05-14T02:53:48.289Z,67.42
2023-05-14T02:54:48.321Z,67.46
2023-05-14T02:55:48.333Z,67.58
2023-05-14T02:56:48.391Z,68.09
2023-05-14T02:57:48.379Z,68.02
2023-05-14T02:58:48.396Z,68.38
2023-05-14T02:59:48.430Z,68.04
2023-05-14T03:00:48.468Z,68.07
2023-05-14T03:01:48.500Z,67.96
2023-05-14T03:02:48.607Z,68.12
2023-05-14T03:03:48.527Z,68.27
2023-05-14T03:04:48.554Z,68.09
2023-05-14T03:05:48.589Z,67.87
2023-05-14T03:06:48.606Z,67.86
2023-05-14T03:07:48.616Z,67.97
2023-05-14T03:08:48.632Z,67.92
2023-05-14T03:09:48.653Z,68.32
2023-05-14T03:10:48.642Z,68.51
2023-05-14T03:11:48.648Z,68.07
2023-05-14T03:12:48.652Z,67.86
2023-05-14T03:13:48.663Z,67.74
2023-05-14T03:14:48.673Z,67.73
2023-05-14T03:15:48.777Z,67.72
2023-05-14T03:16:48.749Z,67.78
2023-05-14T03:17:48.779Z,67.87
2023-05-14T03:18:48.780Z,67.89
2023-05-14T03:19:48.785Z,67.80
2023-05-14T03:20:48.832Z,67.87
2023-05-14T03:21:48.831Z,67.62
2023-05-14T03:22:48.880Z,67.70
2023-05-14T03:23:48.919Z,67.85
2023-05-14T03:24:48.960Z,67.97
2023-05-14T03:25:49.074Z,67.93
2023-05-14T03:26:49.076Z,67.92
2023-05-14T03:27:49.124Z,67.68
2023-05-14T03:28:49.195Z,67.68
2023-05-14T03:29:49.241Z,67.59
2023-05-14T03:30:49.329Z,67.57
2023-05-14T03:31:49.646Z,67.38
2023-05-14T03:32:49.538Z,67.25
2023-05-14T03:33:49.485Z,67.81
2023-05-14T03:34:49.538Z,67.64
2023-05-14T03:35:49.599Z,67.71
2023-05-14T03:36:49.648Z,67.85
2023-05-14T03:37:49.704Z,67.79
2023-05-14T03:38:49.742Z,67.84
2023-05-14T03:39:49.798Z,68.21
2023-05-14T03:40:49.856Z,68.03
2023-05-14T03:41:50.058Z,68.02
2023-05-14T03:42:50.008Z,67.93
2023-05-14T03:43:50.072Z,68.08
2023-05-14T03:44:50.095Z,67.92
2023-05-14T03:45:50.149Z,68.23
2023-05-14T03:46:50.205Z,68.65
2023-05-14T03:47:50.432Z,68.48
2023-05-14T03:48:50.260Z,68.48
2023-05-14T03:49:50.266Z,68.55
2023-05-14T03:50:50.300Z,68.72
2023-05-14T03:51:50.353Z,68.70
2023-05-14T03:52:50.398Z,69.26
2023-05-14T03:53:50.463Z,69.08
2023-05-14T03:54:50.523Z,69.39
2023-05-14T03:55:50.596Z,69.47
2023-05-14T03:56:50.666Z,69.58
2023-05-14T03:57:50.783Z,70.34
2023-05-14T03:58:50.838Z,70.78
2023-05-14T03:59:50.921Z,70.57
2023-05-14T04:00:50.976Z,71.17
2023-05-14T04:01:51.047Z,71.20
2023-05-14T04:02:51.210Z,71.28
2023-05-14T04:03:51.481Z,71.32
2023-05-14T04:04:51.488Z,71.76
2023-05-14T04:05:51.435Z,71.33
2023-05-14T04:06:51.520Z,71.90
2023-05-14T04:07:51.580Z,72.75
2023-05-14T04:08:51.646Z,72.12
2023-05-14T04:09:51.722Z,72.08
2023-05-14T04:10:51.817Z,71.79
2023-05-14T04:11:51.867Z,71.96
2023-05-14T04:12:51.937Z,72.22
2023-05-14T04:13:52.026Z,72.17
2023-05-14T04:14:52.059Z,72.07
2023-05-14T04:15:52.165Z,72.01
2023-05-14T04:16:52.818Z,71.98
2023-05-14T04:17:52.291Z,72.12
2023-05-14T04:18:52.396Z,71.97
2023-05-14T04:19:52.414Z,71.71
2023-05-14T04:20:52.500Z,71.68
2023-05-14T04:21:52.583Z,71.54
2023-05-14T04:22:52.651Z,71.44
2023-05-14T04:23:52.723Z,71.53
2023-05-14T04:24:52.768Z,71.09
2023-05-14T04:25:52.848Z,70.53
2023-05-14T04:26:52.948Z,70.42
2023-05-14T04:27:53.047Z,70.40
2023-05-14T04:28:53.110Z,70.64
2023-05-14T04:29:53.184Z,70.68
2023-05-14T04:30:53.204Z,70.62
2023-05-14T04:31:53.312Z,71.08
2023-05-14T04:32:53.387Z,70.81
2023-05-14T04:33:53.438Z,70.61
2023-05-14T04:34:53.514Z,70.52
2023-05-14T04:35:53.588Z,70.75
2023-05-14T04:36:53.643Z,70.70
2023-05-14T04:37:53.684Z,70.75
2023-05-14T04:38:53.739Z,70.62
2023-05-14T04:39:53.780Z,70.40
2023-05-14T04:40:53.844Z,70.41
2023-05-14T04:41:53.917Z,70.48
2023-05-14T04:42:53.915Z,70.35
2023-05-14T04:43:53.995Z,70.78
2023-05-14T04:44:54.050Z,70.83
2023-05-14T04:45:54.316Z,70.62
2023-05-14T04:46:54.259Z,70.63
2023-05-14T04:47:54.330Z,70.78
2023-05-14T04:48:54.378Z,70.28
2023-05-14T04:49:54.496Z,70.40
2023-05-14T04:50:54.573Z,70.66
2023-05-14T04:51:54.596Z,71.22
2023-05-14T04:52:54.628Z,70.69
2023-05-14T04:53:54.671Z,70.58
2023-05-14T04:54:54.741Z,70.44
2023-05-14T04:55:54.805Z,70.48
2023-05-14T04:56:54.875Z,70.98
2023-05-14T04:57:54.954Z,70.87
2023-05-14T04:58:55.037Z,70.53
2023-05-14T04:59:55.132Z,70.61
2023-05-14T05:00:55.274Z,70.88
2023-05-14T05:01:55.317Z,70.68
2023-05-14T05:02:55.400Z,70.71
2023-05-14T05:03:55.515Z,70.86
2023-05-14T05:04:55.533Z,70.68
2023-05-14T05:05:55.597Z,70.55
2023-05-14T05:06:55.676Z,70.75
2023-05-14T05:07:55.753Z,70.47
2023-05-14T05:08:55.800Z,70.21
2023-05-14T05:09:55.885Z,70.28
2023-05-14T05:10:55.920Z,70.54
2023-05-14T05:11:55.948Z,70.52
2023-05-14T05:12:55.978Z,70.38
2023-05-14T05:13:56.012Z,69.82
2023-05-14T05:14:56.063Z,69.79
2023-05-14T05:15:56.466Z,69.54
2023-05-14T05:16:56.169Z,69.27
2023-05-14T05:17:56.331Z,69.31
2023-05-14T05:18:56.315Z,69.13
2023-05-14T05:19:56.351Z,69.13
2023-05-14T05:20:56.416Z,69.10
2023-05-14T05:21:56.446Z,69.19
2023-05-14T05:22:56.463Z,69.16
2023-05-14T05:23:56.489Z,69.08
2023-05-14T05:24:56.548Z,69.45
2023-05-14T05:25:56.672Z,69.30
2023-05-14T05:26:56.671Z,69.17
2023-05-14T05:27:56.728Z,68.95
2023-05-14T05:28:56.759Z,68.55
2023-05-14T05:29:56.819Z,68.46
2023-05-14T05:30:56.914Z,68.00
2023-05-14T05:31:56.991Z,67.54
2023-05-14T05:32:57.055Z,67.41
2023-05-14T05:33:57.137Z,67.59
2023-05-14T05:34:57.194Z,67.80
2023-05-14T05:35:57.219Z,67.34
2023-05-14T05:36:57.263Z,67.39
2023-05-14T05:37:59.216Z,67.44
2023-05-14T05:38:57.362Z,67.99
2023-05-14T05:39:57.370Z,68.04
2023-05-14T05:40:57.452Z,67.88
2023-05-14T05:41:57.422Z,68.94
2023-05-14T05:42:57.462Z,69.44
2023-05-14T05:43:57.498Z,69.33
2023-05-14T05:44:57.550Z,69.94
2023-05-14T05:45:57.636Z,69.95
2023-05-14T05:46:57.804Z,70.59
2023-05-14T05:47:57.735Z,70.53
2023-05-14T05:48:57.732Z,71.04
2023-05-14T05:49:57.761Z,71.21
2023-05-14T05:50:57.842Z,71.43
2023-05-14T05:51:57.789Z,70.97
2023-05-14T05:52:57.796Z,70.27
2023-05-14T05:53:57.836Z,70.05
2023-05-14T05:54:57.865Z,70.20
2023-05-14T05:55:57.920Z,69.60
2023-05-14T05:56:58.039Z,69.32
2023-05-14T05:57:58.088Z,69.31
2023-05-14T05:58:58.162Z,69.14
2023-05-14T05:59:58.210Z,68.94
2023-05-14T06:00:58.232Z,69.90
2023-05-14T06:01:58.306Z,69.59
2023-05-14T06:02:58.291Z,70.18
2023-05-14T06:03:58.302Z,69.71
2023-05-14T06:04:58.403Z,69.01
2023-05-14T06:05:58.442Z,68.88
2023-05-14T06:06:58.469Z,68.52
2023-05-14T06:07:58.537Z,68.07
2023-05-14T06:08:58.614Z,67.58
2023-05-14T06:09:58.706Z,67.18
2023-05-14T06:10:58.777Z,67.07
2023-05-14T06:11:58.835Z,66.72
2023-05-14T06:12:58.899Z,66.61
2023-05-14T06:13:58.950Z,66.24
2023-05-14T06:14:58.997Z,66.18
2023-05-14T06:15:59.020Z,65.93
2023-05-14T06:16:59.141Z,66.62
2023-05-14T06:17:59.237Z,66.38
2023-05-14T06:18:59.275Z,66.35
2023-05-14T06:19:59.238Z,65.15
2023-05-14T06:20:59.328Z,65.46
2023-05-14T06:21:59.382Z,65.88
2023-05-14T06:22:59.467Z,65.69
2023-05-14T06:23:59.556Z,65.97
2023-05-14T06:24:59.658Z,66.16
2023-05-14T06:25:59.718Z,66.81
2023-05-14T06:26:59.786Z,66.98
2023-05-14T06:27:59.880Z,65.90
2023-05-14T06:28:59.949Z,65.51
2023-05-14T06:30:00.010Z,65.35
2023-05-14T06:31:00.082Z,65.48
2023-05-14T06:32:00.359Z,64.97
2023-05-14T06:33:00.244Z,65.28
2023-05-14T06:34:00.196Z,64.83
2023-05-14T06:35:00.255Z,64.74
2023-05-14T06:36:00.327Z,64.33
2023-05-14T06:37:00.345Z,63.96
2023-05-14T06:38:00.418Z,63.56
2023-05-14T06:39:00.431Z,63.11
2023-05-14T06:40:00.491Z,62.30
2023-05-14T06:41:00.523Z,63.08
2023-05-14T06:42:00.563Z,62.68
2023-05-14T06:43:00.620Z,63.44
2023-05-14T06:44:00.649Z,63.37
2023-05-14T06:46:30.129Z,63.40
2023-05-14T06:47:20.544Z,63.04
2023-05-14T06:48:20.628Z,62.93
2023-05-14T06:49:20.567Z,62.99
2023-05-14T06:50:20.583Z,63.47
2023-05-14T06:51:20.602Z,63.22
2023-05-14T06:52:20.564Z,62.90
2023-05-14T06:53:20.581Z,61.84
2023-05-14T06:54:20.602Z,62.30
2023-05-14T06:55:20.540Z,62.74
2023-05-14T06:56:20.528Z,62.72
2023-05-14T06:57:20.536Z,62.26
2023-05-14T06:58:20.504Z,62.67
2023-05-14T06:59:20.483Z,61.97
2023-05-14T07:00:20.484Z,61.78
2023-05-14T07:01:20.436Z,60.95
2023-05-14T07:02:21.158Z,60.71
2023-05-14T07:03:20.365Z,60.63
2023-05-14T07:04:20.372Z,60.56
2023-05-14T07:05:20.299Z,60.17
2023-05-14T07:06:20.294Z,59.81
2023-05-14T07:07:20.230Z,58.12
2023-05-14T07:08:20.204Z,58.72
2023-05-14T07:09:20.196Z,59.05
2023-05-14T07:10:20.135Z,59.20
2023-05-14T07:11:20.120Z,59.04
2023-05-14T07:12:20.188Z,59.15
2023-05-14T07:13:20.211Z,59.59
2023-05-14T07:14:20.235Z,59.82
2023-05-14T07:15:20.236Z,59.00
2023-05-14T07:16:20.228Z,58.92
2023-05-14T07:17:20.349Z,59.18
2023-05-14T07:18:20.254Z,59.56
2023-05-14T07:19:20.210Z,59.40
2023-05-14T07:20:20.194Z,59.26
2023-05-14T07:21:20.156Z,59.66
2023-05-14T07:22:20.138Z,59.24
2023-05-14T07:23:20.227Z,58.55
2023-05-14T07:24:20.103Z,58.21
2023-05-14T07:25:20.110Z,57.70
2023-05-14T07:26:20.104Z,57.34
2023-05-14T07:27:20.085Z,57.67
2023-05-14T07:28:20.076Z,58.27
2023-05-14T07:29:20.082Z,56.61
2023-05-14T07:30:20.094Z,56.60
2023-05-14T07:31:20.262Z,57.09
2023-05-14T07:32:20.102Z,56.63
2023-05-14T07:33:20.081Z,56.11
2023-05-14T07:34:20.067Z,56.31
2023-05-14T07:35:20.101Z,57.02
2023-05-14T07:36:20.125Z,56.89
2023-05-14T07:37:21.025Z,56.24
2023-05-14T07:38:20.116Z,56.09
2023-05-14T07:39:20.066Z,56.07
2023-05-14T07:40:20.035Z,56.85
2023-05-14T07:41:20.037Z,56.02
2023-05-14T07:42:34.614Z,56.13
2023-05-14T07:43:19.941Z,55.38
2023-05-14T07:44:19.893Z,55.53
2023-05-14T07:45:19.849Z,55.18
2023-05-14T07:46:19.812Z,55.02
2023-05-14T07:47:19.806Z,54.90
2023-05-14T07:48:19.775Z,54.58
2023-05-14T07:49:19.674Z,54.42
2023-05-14T07:50:19.637Z,54.84
2023-05-14T07:51:19.602Z,54.94
2023-05-14T07:52:19.567Z,55.33
2023-05-14T07:53:19.526Z,55.01
2023-05-14T07:54:19.472Z,55.42
2023-05-14T07:55:19.436Z,54.97
2023-05-14T07:56:19.405Z,54.93
2023-05-14T07:57:19.396Z,54.75
2023-05-14T07:58:19.321Z,55.66
2023-05-14T07:59:19.308Z,55.47
2023-05-14T08:00:19.268Z,55.23
2023-05-14T08:01:19.238Z,55.49
2023-05-14T08:02:19.230Z,56.07
2023-05-14T08:03:19.280Z,56.38
2023-05-14T08:04:19.184Z,55.74
2023-05-14T08:05:19.132Z,56.61
2023-05-14T08:06:19.103Z,57.16
2023-05-14T08:07:19.079Z,57.42
2023-05-14T08:08:19.070Z,58.14
2023-05-14T08:09:19.052Z,58.86
2023-05-14T08:10:19.067Z,57.50
2023-05-14T08:11:19.055Z,57.91
2023-05-14T08:12:19.003Z,58.33
2023-05-14T08:13:19.008Z,58.50
2023-05-14T08:14:18.946Z,58.02
2023-05-14T08:15:18.929Z,58.46
2023-05-14T08:16:18.918Z,57.97
2023-05-14T08:17:18.917Z,58.17
2023-05-14T08:18:18.844Z,57.13
2023-05-14T08:19:18.999Z,57.09
2023-05-14T08:20:18.890Z,59.05
2023-05-14T08:21:18.864Z,57.53
2023-05-14T08:22:18.882Z,58.11
2023-05-14T08:23:18.928Z,58.16
2023-05-14T08:24:18.976Z,59.14
2023-05-14T08:25:19.011Z,59.29
2023-05-14T08:26:19.051Z,60.25
2023-05-14T08:27:19.110Z,60.13
2023-05-14T08:28:19.110Z,59.32
2023-05-14T08:29:19.184Z,60.06
2023-05-14T08:30:19.193Z,60.00
2023-05-14T08:31:19.301Z,60.81
2023-05-14T08:32:23.383Z,60.62
2023-05-14T08:33:19.229Z,60.07
2023-05-14T08:34:19.229Z,60.06
2023-05-14T08:35:19.208Z,59.21
2023-05-14T08:36:19.197Z,60.66
2023-05-14T08:37:19.204Z,60.39
2023-05-14T08:38:19.199Z,61.52
2023-05-14T08:39:19.219Z,62.25
2023-05-14T08:40:19.229Z,62.07
2023-05-14T08:41:19.235Z,62.27
2023-05-14T08:42:19.246Z,62.07
2023-05-14T08:43:19.250Z,62.84
2023-05-14T08:44:19.260Z,62.62
2023-05-14T08:45:19.276Z,62.13
2023-05-14T08:46:19.244Z,63.21
2023-05-14T08:47:19.256Z,62.35
2023-05-14T08:48:19.322Z,61.45
2023-05-14T08:49:19.247Z,61.92
2023-05-14T08:50:21.000Z,61.40
2023-05-14T08:51:19.218Z,61.31
2023-05-14T08:52:19.175Z,60.52
2023-05-14T08:53:19.131Z,60.46
2023-05-14T08:54:19.094Z,59.91
2023-05-14T08:55:19.069Z,59.84
2023-05-14T08:56:19.044Z,59.08
2023-05-14T08:57:18.980Z,59.01
2023-05-14T08:58:18.950Z,59.56
2023-05-14T08:59:19.642Z,58.02
2023-05-14T09:00:18.896Z,58.91
2023-05-14T09:01:18.898Z,58.50
2023-05-14T09:02:18.791Z,58.63
2023-05-14T09:03:18.798Z,57.99
2023-05-14T09:04:18.855Z,56.96
2023-05-14T09:05:18.651Z,56.58
2023-05-14T09:06:18.618Z,55.96
2023-05-14T09:07:18.569Z,55.15
2023-05-14T09:08:18.529Z,54.89
2023-05-14T09:09:18.513Z,54.42
2023-05-14T09:10:18.461Z,54.69
2023-05-14T09:11:18.407Z,56.14
2023-05-14T09:12:18.367Z,55.21
2023-05-14T09:13:18.300Z,54.06
2023-05-14T09:14:18.260Z,53.03
2023-05-14T09:15:18.199Z,53.38
2023-05-14T09:16:18.148Z,53.10
2023-05-14T09:17:18.117Z,52.73
2023-05-14T09:18:18.027Z,53.14
2023-05-14T09:19:18.051Z,52.15
2023-05-14T09:20:17.948Z,51.45
2023-05-14T09:21:17.916Z,50.65
2023-05-14T09:22:17.905Z,50.78
2023-05-14T09:23:17.875Z,50.05
2023-05-14T09:24:17.860Z,50.77
2023-05-14T09:25:17.881Z,50.52
2023-05-14T09:26:17.857Z,50.63
2023-05-14T09:27:17.859Z,51.63
2023-05-14T09:28:17.735Z,52.41
2023-05-14T09:29:17.714Z,51.60
2023-05-14T09:30:17.661Z,50.21
2023-05-14T09:31:17.693Z,50.94
2023-05-14T09:32:17.647Z,51.16
2023-05-14T09:33:17.662Z,51.17
2023-05-14T09:34:17.663Z,50.93
2023-05-14T09:35:17.894Z,50.97
2023-05-14T09:36:17.537Z,50.84
2023-05-14T09:37:17.491Z,48.10
2023-05-14T09:38:17.465Z,49.95
2023-05-14T09:39:17.441Z,50.21
2023-05-14T09:40:17.429Z,49.79
2023-05-14T09:41:17.414Z,50.65
2023-05-14T09:42:17.353Z,48.84
2023-05-14T09:43:17.328Z,48.46
2023-05-14T09:44:17.276Z,48.10
2023-05-14T09:45:17.240Z,48.86
2023-05-14T09:46:17.228Z,50.06
2023-05-14T09:47:17.301Z,49.97
2023-05-14T09:48:17.222Z,50.64
2023-05-14T09:49:17.178Z,49.98
2023-05-14T09:50:17.109Z,50.04
2023-05-14T09:51:17.098Z,49.88
2023-05-14T09:52:17.073Z,50.55
2023-05-14T09:53:17.021Z,48.43
2023-05-14T09:54:16.998Z,49.15
2023-05-14T09:55:16.988Z,49.37
2023-05-14T09:56:16.943Z,49.85
2023-05-14T09:57:16.943Z,49.71
2023-05-14T09:58:16.913Z,51.43
2023-05-14T09:59:16.922Z,51.72
2023-05-14T10:00:16.883Z,51.12
2023-05-14T10:01:16.877Z,50.88
2023-05-14T10:02:16.805Z,50.37
2023-05-14T10:03:19.750Z,50.29
2023-05-14T10:04:16.789Z,51.12
2023-05-14T10:05:16.703Z,50.90
2023-05-14T10:06:16.639Z,51.26
2023-05-14T10:07:16.578Z,51.52
2023-05-14T10:08:16.527Z,52.34
2023-05-14T10:09:16.462Z,52.43
2023-05-14T10:10:16.432Z,52.17
2023-05-14T10:11:16.363Z,51.73
2023-05-14T10:12:16.327Z,51.93
2023-05-14T10:13:16.308Z,52.54
2023-05-14T10:14:15.274Z,54.84
2023-05-14T10:15:16.255Z,54.58
2023-05-14T10:16:16.227Z,54.79
2023-05-14T10:17:16.248Z,54.88
2023-05-14T10:18:16.276Z,55.56
2023-05-14T10:19:16.247Z,56.02
2023-05-14T10:20:16.179Z,55.35
2023-05-14T10:21:16.207Z,55.99
2023-05-14T10:22:16.171Z,56.65
2023-05-14T10:23:16.155Z,55.97
2023-05-14T10:24:16.125Z,55.71
2023-05-14T10:25:16.104Z,54.94
2023-05-14T10:26:16.094Z,55.04
2023-05-14T10:27:16.131Z,55.16
2023-05-14T10:28:16.053Z,54.71
2023-05-14T10:29:16.064Z,54.78
2023-05-14T10:30:16.071Z,54.72
2023-05-14T10:31:16.188Z,54.60
2023-05-14T10:32:16.128Z,53.13
2023-05-14T10:33:16.198Z,53.57
2023-05-14T10:34:16.121Z,54.05
2023-05-14T10:35:16.147Z,53.65
2023-05-14T10:36:16.213Z,53.09
2023-05-14T10:37:16.213Z,52.76
2023-05-14T10:38:16.179Z,51.52
2023-05-14T10:39:16.192Z,52.07
2023-05-14T10:40:16.273Z,52.18
2023-05-14T10:41:16.166Z,52.14
2023-05-14T10:42:16.149Z,53.50
2023-05-14T10:43:16.109Z,53.15
2023-05-14T10:44:16.100Z,53.04
2023-05-14T10:45:16.104Z,53.44
2023-05-14T10:46:16.146Z,50.42
2023-05-14T10:47:16.124Z,51.52
2023-05-14T10:48:16.205Z,51.23
2023-05-14T10:49:19.327Z,53.26
2023-05-14T10:50:16.098Z,52.57
2023-05-14T10:51:16.089Z,52.09
2023-05-14T10:52:15.979Z,51.53
2023-05-14T10:53:15.968Z,50.71
2023-05-14T10:54:15.871Z,50.68
2023-05-14T10:55:15.831Z,50.87
2023-05-14T10:56:15.790Z,50.98
2023-05-14T10:57:15.732Z,51.37
2023-05-14T10:58:15.705Z,51.17
2023-05-14T10:59:15.642Z,50.98
2023-05-14T11:00:15.636Z,50.54
2023-05-14T11:01:15.577Z,50.07
2023-05-14T11:02:15.574Z,49.63
2023-05-14T11:03:15.634Z,49.13
2023-05-14T11:04:15.503Z,50.19
2023-05-14T11:05:15.666Z,50.33
2023-05-14T11:06:15.431Z,51.10
2023-05-14T11:07:15.404Z,50.60
2023-05-14T11:08:15.356Z,49.46
2023-05-14T11:09:15.361Z,50.54
2023-05-14T11:10:15.367Z,51.19
2023-05-14T11:11:15.265Z,51.02
2023-05-14T11:12:15.253Z,51.80
2023-05-14T11:13:15.181Z,51.57
2023-05-14T11:14:15.135Z,49.51
2023-05-14T11:15:15.099Z,49.82
2023-05-14T11:16:22.443Z,49.02
2023-05-14T11:17:15.066Z,48.95
2023-05-14T11:18:14.939Z,48.79
2023-05-14T11:19:14.935Z,49.28
2023-05-14T11:20:14.848Z,48.28
2023-05-14T11:21:14.789Z,49.04
2023-05-14T11:22:14.741Z,49.81
2023-05-14T11:23:14.690Z,49.87
2023-05-14T11:24:14.607Z,49.64
2023-05-14T11:25:15.124Z,49.51
2023-05-14T11:26:14.501Z,49.94
2023-05-14T11:27:14.428Z,49.68
2023-05-14T11:28:14.391Z,50.78
2023-05-14T11:29:14.338Z,51.08
2023-05-14T11:30:14.327Z,51.21
2023-05-14T11:31:14.322Z,49.66
2023-05-14T11:32:14.235Z,49.68
2023-05-14T11:33:14.245Z,50.82
2023-05-14T11:34:14.133Z,50.67
2023-05-14T11:35:14.089Z,50.82
2023-05-14T11:36:14.008Z,52.26
2023-05-14T11:37:13.946Z,51.34
2023-05-14T11:38:13.922Z,51.65
2023-05-14T11:39:13.838Z,50.62
2023-05-14T11:40:13.790Z,50.92
2023-05-14T11:41:13.846Z,51.16
2023-05-14T11:42:13.693Z,50.93
2023-05-14T11:43:13.646Z,51.30
2023-05-14T11:44:13.589Z,50.67
2023-05-14T11:45:13.547Z,50.87
2023-05-14T11:46:13.497Z,50.81
2023-05-14T11:47:13.429Z,51.01
2023-05-14T11:48:13.490Z,51.77
2023-05-14T11:49:13.328Z,51.08
2023-05-14T11:50:13.311Z,50.58
2023-05-14T11:51:13.262Z,50.68
2023-05-14T11:52:13.291Z,51.82
2023-05-14T11:53:13.256Z,52.22
2023-05-14T11:54:13.281Z,51.54
2023-05-14T11:55:13.300Z,51.90
2023-05-14T11:56:13.299Z,53.52
2023-05-14T11:57:13.365Z,52.82
2023-05-14T11:58:13.339Z,52.41
2023-05-14T11:59:13.322Z,51.36
2023-05-14T12:00:13.342Z,51.96
2023-05-14T12:01:13.314Z,53.03
2023-05-14T12:02:13.364Z,53.74
2023-05-14T12:03:13.375Z,53.32
2023-05-14T12:04:13.295Z,52.75
2023-05-14T12:05:13.289Z,53.25
2023-05-14T12:06:13.160Z,52.96
2023-05-14T12:07:13.124Z,53.06
2023-05-14T12:08:13.043Z,53.99
2023-05-14T12:09:12.967Z,54.68
2023-05-14T12:10:12.908Z,53.88
2023-05-14T12:11:12.858Z,53.43
2023-05-14T12:12:12.864Z,53.64
2023-05-14T12:13:12.721Z,53.53
2023-05-14T12:14:12.662Z,52.54
2023-05-14T12:15:12.670Z,52.16
2023-05-14T12:16:12.731Z,52.28
2023-05-14T12:17:12.662Z,52.05
2023-05-14T12:18:23.482Z,51.37
2023-05-14T12:19:12.587Z,51.77
2023-05-14T12:20:12.634Z,52.03
2023-05-14T12:21:12.413Z,52.47
2023-05-14T12:22:12.333Z,52.98
2023-05-14T12:23:12.264Z,52.27
2023-05-14T12:24:12.183Z,52.35
2023-05-14T12:25:12.095Z,54.10
2023-05-14T12:26:12.025Z,53.51
2023-05-14T12:27:11.948Z,53.48
2023-05-14T12:28:11.883Z,53.94
2023-05-14T12:29:11.831Z,54.04
2023-05-14T12:31:10.739Z,53.63
2023-05-14T12:32:11.648Z,54.98
2023-05-14T12:33:11.646Z,56.65
2023-05-14T12:34:11.591Z,54.51
2023-05-14T12:35:11.549Z,55.99
2023-05-14T12:36:21.347Z,58.13
2023-05-14T12:37:11.460Z,59.33
2023-05-14T12:38:11.435Z,59.15
2023-05-14T12:39:11.391Z,59.42
2023-05-14T12:40:11.379Z,59.89
2023-05-14T12:41:11.342Z,59.65
2023-05-14T12:42:11.313Z,59.70
2023-05-14T12:43:11.272Z,60.01
2023-05-14T12:44:11.251Z,59.41
2023-05-14T12:45:11.245Z,59.91
2023-05-14T12:46:11.169Z,59.54
2023-05-14T12:47:11.206Z,59.27
2023-05-14T12:48:11.152Z,60.11
2023-05-14T12:49:11.080Z,59.97
2023-05-14T12:50:11.066Z,60.47
2023-05-14T12:51:11.060Z,60.42
2023-05-14T12:53:10.015Z,61.23
2023-05-14T12:54:10.983Z,61.74
2023-05-14T12:55:10.962Z,62.78
2023-05-14T12:56:10.954Z,62.10